createdAt,value
2023-04-16T00:00:34.140Z,1.73
2023-04-16T00:03:03.687Z,1.35
2023-04-16T00:05:32.835Z,1.58
2023-04-16T00:08:02.058Z,1.50
2023-04-16T00:10:31.285Z,1.55
2023-04-16T00:13:00.505Z,1.77
2023-04-16T00:15:32.564Z,1.50
2023-04-16T00:18:01.779Z,1.67
2023-04-16T00:20:30.777Z,1.42
2023-04-16T00:23:00.008Z,1.50
2023-04-16T00:25:29.387Z,1.63
2023-04-16T00:27:58.433Z,1.55
2023-04-16T00:30:27.504Z,1.75
2023-04-16T00:32:56.621Z,1.55
2023-04-16T00:35:25.800Z,1.88
2023-04-16T00:37:54.991Z,1.38
2023-04-16T00:40:24.182Z,1.75
2023-04-16T00:42:53.465Z,1.33
2023-04-16T00:45:43.449Z,1.50
2023-04-16T00:48:16.089Z,1.58
2023-04-16T00:50:45.374Z,1.60
2023-04-16T00:53:15.774Z,1.90
2023-04-16T00:55:45.373Z,1.70
2023-04-16T00:58:14.564Z,1.55
2023-04-16T01:00:43.623Z,1.55
2023-04-16T01:03:13.393Z,2.20
2023-04-16T01:05:42.724Z,2.42
2023-04-16T01:08:23.998Z,2.28
2023-04-16T01:10:53.053Z,1.90
2023-04-16T01:13:22.418Z,2.10
2023-04-16T01:15:51.838Z,2.67
2023-04-16T01:18:23.388Z,2.30
2023-04-16T01:20:55.614Z,2.08
2023-04-16T01:23:25.206Z,1.92
2023-04-16T01:25:55.280Z,1.90
2023-04-16T01:28:25.130Z,1.92
2023-04-16T01:30:54.290Z,1.70
2023-04-16T01:33:36.616Z,1.85
2023-04-16T01:36:06.323Z,1.98
2023-04-16T01:38:35.485Z,2.08
2023-04-16T01:41:04.586Z,1.80
2023-04-16T01:43:33.620Z,1.60
2023-04-16T01:46:32.041Z,1.70
2023-04-16T01:49:01.520Z,1.73
2023-04-16T01:51:30.522Z,1.60
2023-04-16T01:53:59.703Z,1.70
2023-04-16T01:56:28.781Z,1.58
2023-04-16T01:58:58.183Z,1.70
2023-04-16T02:04:42.586Z,1.83
2023-04-16T02:07:13.561Z,1.50
2023-04-16T02:09:43.116Z,1.55
2023-04-16T02:12:14.692Z,1.60
2023-04-16T02:14:44.242Z,1.42
2023-04-16T02:17:18.032Z,2.10
2023-04-16T02:19:49.832Z,1.92
2023-04-16T02:22:19.545Z,1.73
2023-04-16T02:24:52.280Z,1.75
2023-04-16T02:27:21.372Z,1.80
2023-04-16T02:29:53.783Z,1.80
2023-04-16T02:32:26.688Z,1.70
2023-04-16T02:34:59.616Z,1.40
2023-04-16T02:37:29.035Z,1.30
2023-04-16T02:39:58.893Z,1.27
2023-04-16T02:42:29.509Z,1.33
2023-04-16T02:44:58.527Z,1.52
2023-04-16T02:47:28.803Z,1.45
2023-04-16T02:50:01.561Z,1.70
2023-04-16T02:52:32.648Z,1.92
2023-04-16T02:55:02.272Z,1.90
2023-04-16T02:57:35.757Z,2.20
2023-04-16T03:00:06.094Z,1.75
2023-04-16T03:02:39.003Z,1.80
2023-04-16T03:05:10.283Z,3.40
2023-04-16T03:07:41.535Z,8.82
2023-04-16T03:10:13.195Z,5.25
2023-04-16T03:12:45.935Z,3.70
2023-04-16T03:15:18.713Z,3.25
2023-04-16T03:18:00.588Z,4.13
2023-04-16T03:20:33.788Z,3.97
2023-04-16T03:23:02.929Z,4.00
2023-04-16T03:25:36.535Z,7.25
2023-04-16T03:28:08.817Z,5.75
2023-04-16T03:30:46.044Z,5.32
2023-04-16T03:33:19.760Z,3.53
2023-04-16T03:35:59.822Z,2.80
2023-04-16T03:38:32.459Z,2.42
2023-04-16T03:41:03.528Z,2.28
2023-04-16T03:43:35.098Z,2.33
2023-04-16T03:46:17.835Z,2.42
2023-04-16T03:48:51.269Z,2.00
2023-04-16T03:51:22.795Z,2.38
2023-04-16T03:53:54.858Z,2.03
2023-04-16T03:56:30.557Z,1.63
2023-04-16T03:59:04.834Z,1.80
2023-04-16T04:01:35.622Z,1.95
2023-04-16T04:04:07.276Z,1.80
2023-04-16T04:06:39.518Z,1.92
2023-04-16T04:09:09.555Z,1.80
2023-04-16T04:11:39.555Z,1.92
2023-04-16T04:14:23.208Z,2.13
2023-04-16T04:16:56.545Z,1.85
2023-04-16T04:19:28.857Z,2.00
2023-04-16T04:21:58.066Z,2.45
2023-04-16T04:24:30.236Z,2.70
2023-04-16T04:27:00.542Z,2.10
2023-04-16T04:29:34.177Z,2.08
2023-04-16T04:32:06.995Z,2.25
2023-04-16T04:34:36.854Z,2.75
2023-04-16T04:37:07.452Z,2.33
2023-04-16T04:39:36.996Z,2.10
2023-04-16T04:42:06.111Z,2.25
2023-04-16T04:44:35.241Z,1.75
2023-04-16T04:47:04.400Z,2.22
2023-04-16T04:49:33.380Z,2.08
2023-04-16T04:52:05.746Z,1.95
2023-04-16T04:54:35.164Z,2.20
2023-04-16T04:57:04.386Z,1.85
2023-04-16T04:59:33.599Z,1.88
2023-04-16T05:02:04.410Z,2.22
2023-04-16T05:04:52.997Z,2.22
2023-04-16T05:07:23.050Z,2.15
2023-04-16T05:09:52.859Z,1.80
2023-04-16T05:12:22.033Z,2.13
2023-04-16T05:14:51.725Z,2.45
2023-04-16T05:17:20.926Z,1.92
2023-04-16T05:19:49.994Z,2.15
2023-04-16T05:22:20.012Z,1.88
2023-04-16T05:24:49.183Z,1.90
2023-04-16T05:27:18.185Z,2.05
2023-04-16T05:29:47.304Z,2.10
2023-04-16T05:32:16.749Z,2.17
2023-04-16T05:34:45.940Z,2.28
2023-04-16T05:37:14.978Z,2.33
2023-04-16T05:39:54.067Z,1.90
2023-04-16T05:42:29.577Z,2.20
2023-04-16T05:44:58.818Z,2.40
2023-04-16T05:47:29.108Z,3.40
2023-04-16T05:49:58.252Z,2.40
2023-04-16T05:52:27.425Z,2.42
2023-04-16T05:54:56.750Z,2.40
2023-04-16T05:57:25.715Z,2.45
2023-04-16T05:59:57.809Z,2.03
2023-04-16T06:02:27.526Z,2.35
2023-04-16T06:04:56.802Z,2.40
2023-04-16T06:07:31.416Z,2.20
2023-04-16T06:10:00.421Z,2.17
2023-04-16T06:12:32.561Z,1.63
2023-04-16T06:15:02.786Z,1.70
2023-04-16T06:17:31.868Z,1.80
2023-04-16T06:20:03.626Z,2.20
2023-04-16T06:22:32.806Z,2.10
2023-04-16T06:25:05.024Z,1.80
2023-04-16T06:27:34.116Z,2.55
2023-04-16T06:30:03.697Z,2.63
2023-04-16T06:32:32.860Z,3.55
2023-04-16T06:35:02.214Z,5.90
2023-04-16T06:37:31.351Z,3.92
2023-04-16T06:40:15.069Z,3.63
2023-04-16T06:42:45.531Z,2.63
2023-04-16T06:45:15.084Z,2.20
2023-04-16T06:47:44.658Z,2.22
2023-04-16T06:50:15.791Z,3.88
2023-04-16T06:52:44.947Z,5.15
2023-04-16T06:55:14.290Z,4.50
2023-04-16T06:57:45.989Z,3.05
2023-04-16T07:00:15.286Z,2.13
2023-04-16T07:02:46.329Z,2.08
2023-04-16T07:05:15.662Z,2.20
2023-04-16T07:07:44.736Z,2.40
2023-04-16T07:10:13.845Z,2.80
2023-04-16T07:12:42.965Z,2.88
2023-04-16T07:15:15.333Z,7.65
2023-04-16T07:17:44.769Z,6.18
2023-04-16T07:20:13.859Z,3.90
2023-04-16T07:22:43.141Z,4.72
2023-04-16T07:25:12.538Z,9.07
2023-04-16T07:27:41.683Z,7.10
2023-04-16T07:30:10.965Z,3.53
2023-04-16T07:32:40.236Z,2.63
2023-04-16T07:35:09.667Z,1.92
2023-04-16T07:37:48.155Z,1.90
2023-04-16T07:40:17.279Z,2.03
2023-04-16T07:42:46.690Z,2.10
2023-04-16T07:45:15.865Z,1.95
2023-04-16T07:48:25.573Z,2.53
2023-04-16T07:50:57.550Z,2.42
2023-04-16T07:53:26.943Z,2.90
2023-04-16T07:55:58.914Z,2.20
2023-04-16T07:58:30.447Z,2.35
2023-04-16T08:00:59.993Z,2.10
2023-04-16T08:03:29.514Z,2.30
2023-04-16T08:05:59.397Z,2.55
2023-04-16T08:08:33.118Z,2.55
2023-04-16T08:11:02.238Z,2.28
2023-04-16T08:13:37.639Z,2.60
2023-04-16T08:16:07.432Z,3.08
2023-04-16T08:18:36.578Z,3.58
2023-04-16T08:21:05.768Z,3.65
2023-04-16T08:23:34.914Z,2.50
2023-04-16T08:26:04.172Z,3.55
2023-04-16T08:28:33.409Z,3.10
2023-04-16T08:31:02.549Z,5.10
2023-04-16T08:33:34.640Z,4.60
2023-04-16T08:36:03.842Z,2.90
2023-04-16T08:38:32.758Z,2.72
2023-04-16T08:41:14.296Z,2.28
2023-04-16T08:43:49.763Z,2.65
2023-04-16T08:46:20.789Z,2.70
2023-04-16T08:48:55.879Z,2.60
2023-04-16T08:51:28.225Z,2.28
2023-04-16T08:54:10.115Z,2.42
2023-04-16T08:56:43.294Z,2.40
2023-04-16T08:59:13.182Z,2.47
2023-04-16T09:01:42.804Z,2.13
2023-04-16T09:04:12.465Z,2.83
2023-04-16T09:06:43.448Z,2.65
2023-04-16T09:09:13.848Z,2.63
2023-04-16T09:11:46.385Z,2.35
2023-04-16T09:14:15.649Z,2.60
2023-04-16T09:16:47.508Z,2.85
2023-04-16T09:19:19.507Z,2.38
2023-04-16T09:21:49.472Z,2.35
2023-04-16T09:24:19.480Z,3.10
2023-04-16T09:26:49.622Z,2.80
2023-04-16T09:29:40.155Z,2.67
2023-04-16T09:32:11.813Z,2.75
2023-04-16T09:35:10.299Z,2.60
2023-04-16T09:37:39.586Z,3.03
2023-04-16T09:40:09.319Z,2.40
2023-04-16T09:42:38.792Z,2.22
2023-04-16T09:45:08.399Z,2.88
2023-04-16T09:47:43.382Z,2.45
2023-04-16T09:50:18.766Z,2.08
2023-04-16T09:52:53.913Z,2.35
2023-04-16T09:55:29.057Z,2.10
2023-04-16T09:58:03.626Z,2.50
2023-04-16T10:00:35.431Z,2.40
2023-04-16T10:03:12.579Z,2.47
2023-04-16T10:05:42.701Z,2.40
2023-04-16T10:08:15.441Z,2.42
2023-04-16T10:10:48.356Z,2.35
2023-04-16T10:13:18.635Z,2.25
2023-04-16T10:15:47.997Z,2.60
2023-04-16T10:18:17.708Z,2.50
2023-04-16T10:21:00.069Z,2.45
2023-04-16T10:23:59.782Z,2.30
2023-04-16T10:26:39.352Z,2.27
2023-04-16T10:29:10.049Z,2.28
2023-04-16T10:31:43.624Z,2.42
2023-04-16T10:34:13.025Z,2.38
2023-04-16T10:36:42.215Z,2.50
2023-04-16T10:39:15.516Z,2.60
2023-04-16T10:41:47.521Z,2.50
2023-04-16T10:44:19.734Z,2.10
2023-04-16T10:46:51.057Z,2.50
2023-04-16T10:49:24.857Z,2.67
2023-04-16T10:51:57.612Z,2.00
2023-04-16T10:54:29.105Z,2.40
2023-04-16T10:57:01.634Z,2.17
2023-04-16T10:59:35.805Z,2.22
2023-04-16T11:02:15.726Z,2.53
2023-04-16T11:04:50.158Z,2.25
2023-04-16T11:07:21.839Z,2.40
2023-04-16T11:10:07.372Z,2.25
2023-04-16T11:12:45.749Z,2.40
2023-04-16T11:15:22.572Z,2.50
2023-04-16T11:17:53.546Z,2.63
2023-04-16T11:20:25.158Z,2.83
2023-04-16T11:22:58.238Z,2.63
2023-04-16T11:25:33.163Z,2.55
2023-04-16T11:28:04.082Z,2.20
2023-04-16T11:30:39.088Z,2.30
2023-04-16T11:33:15.044Z,2.72
2023-04-16T11:35:44.511Z,2.72
2023-04-16T11:38:13.744Z,2.85
2023-04-16T11:40:43.935Z,2.00
2023-04-16T11:43:18.223Z,2.22
2023-04-16T11:46:10.262Z,2.28
2023-04-16T11:48:54.877Z,2.20
2023-04-16T11:51:24.326Z,2.25
2023-04-16T11:53:55.270Z,2.42
2023-04-16T11:56:29.494Z,2.67
2023-04-16T11:59:17.974Z,2.35
2023-04-16T12:01:56.473Z,2.47
2023-04-16T12:04:28.571Z,2.60
2023-04-16T12:07:14.825Z,2.60
2023-04-16T12:09:45.000Z,3.13
2023-04-16T12:12:28.265Z,2.70
2023-04-16T12:15:00.397Z,2.72
2023-04-16T12:17:29.576Z,2.50
2023-04-16T12:20:06.831Z,2.63
2023-04-16T12:22:38.625Z,2.35
2023-04-16T12:25:12.005Z,2.30
2023-04-16T12:27:53.685Z,2.42
2023-04-16T12:30:25.181Z,2.03
2023-04-16T12:33:15.826Z,2.40
2023-04-16T12:35:46.010Z,2.30
2023-04-16T12:38:18.204Z,2.28
2023-04-16T12:40:53.049Z,2.55
2023-04-16T12:43:22.621Z,2.30
2023-04-16T12:45:51.962Z,2.38
2023-04-16T12:48:21.090Z,2.28
2023-04-16T12:50:50.070Z,2.35
2023-04-16T12:53:19.130Z,2.03
2023-04-16T12:55:48.200Z,2.53
2023-04-16T12:58:17.327Z,2.53
2023-04-16T13:00:49.370Z,2.10
2023-04-16T13:03:27.075Z,2.00
2023-04-16T13:05:57.952Z,2.20
2023-04-16T13:08:26.950Z,2.28
2023-04-16T13:10:56.169Z,2.40
2023-04-16T13:13:25.337Z,1.95
2023-04-16T13:15:54.534Z,2.08
2023-04-16T13:18:24.055Z,2.00
2023-04-16T13:20:53.210Z,1.90
2023-04-16T13:23:31.869Z,2.20
2023-04-16T13:26:07.128Z,1.95
2023-04-16T13:28:37.299Z,1.85
2023-04-16T13:31:06.378Z,2.35
2023-04-16T13:33:47.603Z,2.15
2023-04-16T13:36:17.498Z,2.63
2023-04-16T13:38:46.734Z,2.05
2023-04-16T13:41:15.936Z,2.40
2023-04-16T13:43:44.964Z,2.20
2023-04-16T13:46:14.045Z,1.75
2023-04-16T13:48:46.124Z,2.00
2023-04-16T13:51:16.471Z,1.92
2023-04-16T13:53:45.488Z,2.13
2023-04-16T13:56:15.737Z,2.25
2023-04-16T13:58:45.301Z,2.10
2023-04-16T14:01:14.508Z,2.20
2023-04-16T14:04:13.993Z,2.25
2023-04-16T14:06:43.187Z,2.05
2023-04-16T14:09:14.463Z,2.38
2023-04-16T14:11:43.696Z,2.13
2023-04-16T14:14:13.637Z,2.33
2023-04-16T14:16:42.927Z,2.20
2023-04-16T14:19:14.620Z,2.50
2023-04-16T14:21:46.396Z,2.20
2023-04-16T14:24:15.600Z,2.03
2023-04-16T14:26:47.392Z,2.20
2023-04-16T14:29:16.533Z,2.53
2023-04-16T14:31:45.542Z,1.75
2023-04-16T14:34:14.676Z,1.80
2023-04-16T14:36:47.447Z,2.63
2023-04-16T14:39:16.794Z,2.30
2023-04-16T14:41:46.514Z,3.10
2023-04-16T14:44:15.644Z,5.60
2023-04-16T14:46:44.717Z,2.50
2023-04-16T14:49:15.231Z,2.30
2023-04-16T14:51:46.099Z,2.50
2023-04-16T14:54:15.196Z,2.58
2023-04-16T14:56:44.213Z,2.60
2023-04-16T14:59:13.452Z,2.22
2023-04-16T15:01:42.925Z,2.45
2023-04-16T15:04:12.378Z,1.98
2023-04-16T15:06:41.989Z,2.45
2023-04-16T15:09:11.573Z,2.22
2023-04-16T15:11:40.721Z,1.90
2023-04-16T15:14:12.735Z,2.38
2023-04-16T15:16:42.252Z,2.40
2023-04-16T15:19:11.327Z,2.22
2023-04-16T15:21:40.637Z,2.28
2023-04-16T15:24:10.172Z,2.10
2023-04-16T15:26:40.504Z,1.90
2023-04-16T15:29:09.645Z,2.47
2023-04-16T15:31:41.100Z,2.33
2023-04-16T15:34:15.727Z,2.33
2023-04-16T15:36:44.857Z,2.25
2023-04-16T15:39:14.705Z,2.40
2023-04-16T15:41:59.334Z,2.15
2023-04-16T15:44:39.425Z,2.15
2023-04-16T15:47:11.244Z,1.95
2023-04-16T15:49:43.666Z,2.13
2023-04-16T15:52:13.280Z,2.25
2023-04-16T15:54:51.280Z,2.00
2023-04-16T15:57:20.544Z,1.90
2023-04-16T16:00:05.421Z,1.92
2023-04-16T16:02:38.957Z,1.83
2023-04-16T16:05:11.019Z,2.00
2023-04-16T16:07:40.632Z,2.22
2023-04-16T16:10:12.140Z,1.90
2023-04-16T16:12:42.260Z,2.25
2023-04-16T16:15:15.271Z,2.00
2023-04-16T16:17:44.464Z,2.20
2023-04-16T16:20:16.669Z,1.88
2023-04-16T16:22:47.627Z,2.10
2023-04-16T16:25:19.649Z,2.20
2023-04-16T16:27:49.413Z,1.90
2023-04-16T16:30:18.647Z,1.88
2023-04-16T16:32:47.662Z,1.90
2023-04-16T16:35:16.881Z,1.90
2023-04-16T16:37:46.497Z,1.88
2023-04-16T16:40:21.125Z,2.15
2023-04-16T16:42:50.306Z,1.33
2023-04-16T16:45:19.503Z,1.80
2023-04-16T16:47:49.618Z,1.30
2023-04-16T16:50:19.390Z,1.80
2023-04-16T16:52:48.450Z,1.60
2023-04-16T16:55:20.497Z,1.63
2023-04-16T16:57:50.132Z,2.42
2023-04-16T17:00:21.308Z,2.50
2023-04-16T17:02:52.090Z,2.15
2023-04-16T17:05:21.745Z,1.80
2023-04-16T17:07:50.749Z,2.22
2023-04-16T17:10:23.196Z,1.60
2023-04-16T17:12:52.742Z,2.03
2023-04-16T17:15:22.171Z,1.50
2023-04-16T17:17:51.345Z,1.40
2023-04-16T17:20:20.758Z,1.52
2023-04-16T17:22:50.089Z,1.50
2023-04-16T17:25:19.412Z,1.70
2023-04-16T17:27:49.098Z,1.40
2023-04-16T17:30:21.477Z,2.10
2023-04-16T17:32:51.092Z,2.97
2023-04-16T17:35:20.343Z,2.80
2023-04-16T17:37:49.315Z,3.53
2023-04-16T17:40:19.325Z,2.75
2023-04-16T17:42:50.092Z,2.45
2023-04-16T17:45:21.288Z,2.85
2023-04-16T17:47:50.635Z,2.55
2023-04-16T17:50:22.573Z,2.20
2023-04-16T17:52:54.027Z,2.28
2023-04-16T17:55:23.401Z,2.00
2023-04-16T17:57:52.422Z,1.80
2023-04-16T18:00:22.031Z,1.92
2023-04-16T18:02:53.314Z,2.05
2023-04-16T18:05:22.801Z,1.83
2023-04-16T18:07:52.516Z,2.05
2023-04-16T18:10:24.533Z,1.88
2023-04-16T18:12:55.118Z,2.00
2023-04-16T18:15:24.267Z,2.00
2023-04-16T18:17:53.345Z,1.83
2023-04-16T18:20:22.653Z,1.77
2023-04-16T18:22:51.782Z,1.70
2023-04-16T18:25:29.923Z,1.73
2023-04-16T18:28:04.695Z,1.95
2023-04-16T18:30:34.585Z,2.10
2023-04-16T18:33:25.377Z,1.92
2023-04-16T18:35:52.920Z,2.00
2023-04-16T18:38:22.122Z,2.20
2023-04-16T18:40:51.212Z,2.50
2023-04-16T18:43:20.275Z,2.10
2023-04-16T18:45:49.614Z,1.88
2023-04-16T18:48:18.728Z,1.65
2023-04-16T18:50:50.626Z,2.17
2023-04-16T18:53:19.789Z,1.55
2023-04-16T18:55:53.715Z,1.55
2023-04-16T18:58:23.177Z,1.67
2023-04-16T19:00:55.932Z,1.85
2023-04-16T19:03:26.796Z,1.60
2023-04-16T19:05:56.024Z,2.22
2023-04-16T19:08:25.232Z,1.75
2023-04-16T19:10:54.399Z,1.70
2023-04-16T19:13:23.450Z,1.10
2023-04-16T19:19:02.639Z,1.40
2023-04-16T19:21:32.120Z,1.50
2023-04-16T19:24:01.080Z,0.70
2023-04-16T19:26:30.082Z,1.00
2023-04-16T19:28:59.336Z,1.33
2023-04-16T19:31:28.672Z,0.75
2023-04-16T19:34:00.766Z,0.90
2023-04-16T19:36:29.775Z,1.00
2023-04-16T19:38:58.805Z,0.95
2023-04-16T19:41:27.918Z,0.85
2023-04-16T19:43:56.995Z,0.60
2023-04-16T19:46:25.963Z,0.80
2023-04-16T19:48:54.905Z,0.85
2023-04-16T19:51:24.551Z,0.70
2023-04-16T19:53:54.755Z,0.77
2023-04-16T19:56:23.875Z,0.77
2023-04-16T19:58:52.819Z,0.95
2023-04-16T20:01:22.067Z,1.30
2023-04-16T20:03:51.295Z,1.30
2023-04-16T20:06:20.304Z,1.00
2023-04-16T20:08:49.436Z,1.20
2023-04-16T20:11:18.610Z,1.10
2023-04-16T20:13:48.559Z,0.80
2023-04-16T20:16:18.337Z,0.50
2023-04-16T20:18:47.573Z,0.50
2023-04-16T20:21:16.465Z,0.60
2023-04-16T20:23:45.501Z,0.60
2023-04-16T20:26:19.031Z,0.68
2023-04-16T20:28:48.463Z,0.47
2023-04-16T20:31:17.903Z,0.55
2023-04-16T20:33:47.420Z,0.50
2023-04-16T20:36:22.554Z,0.50
2023-04-16T20:38:53.894Z,0.55
2023-04-16T20:41:23.497Z,0.50
2023-04-16T20:43:55.012Z,0.70
2023-04-16T20:46:24.985Z,0.90
2023-04-16T20:48:54.381Z,1.50
2023-04-16T20:51:23.481Z,2.30
2023-04-16T20:53:53.261Z,2.40
2023-04-16T20:56:22.452Z,2.40
2023-04-16T20:58:51.511Z,2.50
2023-04-16T21:01:21.517Z,2.38
2023-04-16T21:03:50.985Z,1.38
2023-04-16T21:06:23.556Z,1.70
2023-04-16T21:08:53.454Z,1.70
2023-04-16T21:11:22.759Z,1.50
2023-04-16T21:13:52.148Z,1.33
2023-04-16T21:16:21.235Z,0.90
2023-04-16T21:18:51.245Z,1.05
2023-04-16T21:21:22.557Z,1.00
2023-04-16T21:23:54.708Z,0.80
2023-04-16T21:26:25.212Z,0.68
2023-04-16T21:28:55.124Z,0.60
2023-04-16T21:31:24.778Z,0.57
2023-04-16T21:33:54.597Z,0.70
2023-04-16T21:36:27.371Z,0.30
2023-04-16T21:38:56.690Z,0.38
2023-04-16T21:41:25.682Z,0.40
2023-04-16T21:43:54.839Z,0.40
2023-04-16T21:46:24.155Z,0.40
2023-04-16T21:48:53.297Z,0.30
2023-04-16T21:51:29.641Z,0.60
2023-04-16T21:53:59.043Z,0.90
2023-04-16T21:56:28.235Z,1.00
2023-04-16T21:58:57.439Z,0.77
2023-04-16T22:01:26.780Z,0.90
2023-04-16T22:03:55.897Z,1.30
2023-04-16T22:06:25.262Z,1.48
2023-04-16T22:08:54.260Z,1.30
2023-04-16T22:11:26.198Z,1.30
2023-04-16T22:13:58.523Z,1.27
2023-04-16T22:16:29.880Z,0.93
2023-04-16T22:19:01.142Z,1.13
2023-04-16T22:21:30.291Z,1.20
2023-04-16T22:23:59.318Z,1.30
2023-04-16T22:26:30.978Z,1.05
2023-04-16T22:29:01.441Z,1.08
2023-04-16T22:31:30.861Z,1.52
2023-04-16T22:34:03.306Z,1.63
2023-04-16T22:36:32.712Z,1.17
2023-04-16T22:39:09.496Z,1.50
2023-04-16T22:41:39.366Z,1.48
2023-04-16T22:44:09.048Z,1.48
2023-04-16T22:46:39.474Z,1.30
2023-04-16T22:49:14.783Z,1.70
2023-04-16T22:51:44.452Z,2.25
2023-04-16T22:54:14.083Z,1.80
2023-04-16T22:56:43.320Z,2.45
2023-04-16T22:59:12.509Z,2.20
2023-04-16T23:01:42.998Z,1.73
2023-04-16T23:04:12.214Z,2.53
2023-04-16T23:06:44.238Z,2.70
2023-04-16T23:09:13.842Z,2.92
2023-04-16T23:11:45.869Z,3.08
2023-04-16T23:14:16.712Z,2.90
2023-04-16T23:16:50.487Z,2.72
2023-04-16T23:19:19.938Z,2.97
2023-04-16T23:21:49.051Z,3.10
2023-04-16T23:24:18.067Z,3.72
2023-04-16T23:26:47.293Z,3.90
2023-04-16T23:29:16.177Z,4.22
2023-04-16T23:31:48.671Z,2.92
2023-04-16T23:34:18.036Z,4.55
2023-04-16T23:36:47.289Z,5.47
2023-04-16T23:39:17.194Z,4.43
2023-04-16T23:41:48.144Z,4.93
2023-04-16T23:44:20.196Z,5.10
2023-04-16T23:46:53.223Z,5.88
2023-04-16T23:49:30.415Z,6.80
2023-04-16T23:52:04.246Z,5.53
2023-04-16T23:54:37.408Z,4.60
2023-04-16T23:57:07.462Z,5.13
2023-04-16T23:59:36.677Z,4.22
